AAR1226 ZSPD-RKSI
Flight info
| Callsign | AAR1226 |
|---|---|
| Flight time | 1h 20m |
| Altitude | 35000 |
| Route | LAMEN A593 SADLI Y590 ELGEP Y722 OLMEN |
| Aircraft | A321/M-SDE3FGHIRWY/LB1 |
Departure
| Time | 2026-05-05 13:18 |
|---|---|
| Airport | Shanghai Pudong International Airport (ZSPD) |
Arrival
| Time | 2026-05-05 14:38 |
|---|---|
| Airport | Incheon International Airport (RKSI) |
| Time | Latitude | Longitude | Altitude | Speed | Heading |
|---|---|---|---|---|---|
| 2026-05-05 13:01 | 31.14970 | 121.80871 | 23 ft | 0 kts | 252° |
| 2026-05-05 13:06 | 31.14977 | 121.80895 | 23 ft | 4 kts | 252° |
| 2026-05-05 13:07 | 31.14985 | 121.80925 | 26 ft | 4 kts | 252° |
| 2026-05-05 13:07 | 31.14992 | 121.80951 | 26 ft | 4 kts | 269° |
| 2026-05-05 13:07 | 31.14984 | 121.80975 | 25 ft | 4 kts | 330° |
| 2026-05-05 13:07 | 31.14966 | 121.80984 | 25 ft | 1 kts | 341° |
| 2026-05-05 13:08 | 31.14963 | 121.80985 | 24 ft | 0 kts | 341° |
| 2026-05-05 13:11 | 31.14975 | 121.80981 | 23 ft | 5 kts | 341° |
| 2026-05-05 13:11 | 31.15012 | 121.80966 | 23 ft | 6 kts | 341° |
| 2026-05-05 13:11 | 31.15056 | 121.80949 | 24 ft | 7 kts | 341° |
| 2026-05-05 13:11 | 31.15106 | 121.80930 | 23 ft | 8 kts | 341° |
| 2026-05-05 13:12 | 31.15163 | 121.80909 | 23 ft | 9 kts | 343° |
| 2026-05-05 13:12 | 31.15225 | 121.80887 | 23 ft | 10 kts | 342° |
| 2026-05-05 13:12 | 31.15293 | 121.80863 | 23 ft | 11 kts | 349° |
| 2026-05-05 13:12 | 31.15347 | 121.80907 | 23 ft | 11 kts | 66° |
| 2026-05-05 13:13 | 31.15366 | 121.80985 | 25 ft | 0 kts | 75° |
| 2026-05-05 13:13 | 31.15366 | 121.80986 | 25 ft | 1 kts | 75° |
| 2026-05-05 13:13 | 31.15379 | 121.81029 | 23 ft | 11 kts | 70° |
| 2026-05-05 13:13 | 31.15416 | 121.81111 | 22 ft | 12 kts | 38° |
| 2026-05-05 13:14 | 31.15497 | 121.81105 | 22 ft | 13 kts | 342° |
| 2026-05-05 13:14 | 31.15582 | 121.81072 | 22 ft | 13 kts | 341° |
| 2026-05-05 13:14 | 31.15670 | 121.81039 | 22 ft | 14 kts | 342° |
| 2026-05-05 13:14 | 31.15697 | 121.81029 | 22 ft | 0 kts | 342° |
| 2026-05-05 13:15 | 31.15698 | 121.81029 | 22 ft | 1 kts | 342° |
| 2026-05-05 13:15 | 31.15709 | 121.81025 | 22 ft | 2 kts | 342° |
| 2026-05-05 13:15 | 31.15740 | 121.81024 | 22 ft | 6 kts | 19° |
| 2026-05-05 13:16 | 31.15764 | 121.81074 | 22 ft | 8 kts | 74° |
| 2026-05-05 13:16 | 31.15780 | 121.81143 | 22 ft | 9 kts | 75° |
| 2026-05-05 13:16 | 31.15786 | 121.81221 | 22 ft | 10 kts | 111° |
| 2026-05-05 13:16 | 31.15726 | 121.81245 | 21 ft | 3 kts | 165° |
| 2026-05-05 13:17 | 31.15725 | 121.81246 | 21 ft | 0 kts | 159° |
| 2026-05-05 13:17 | 31.15720 | 121.81248 | 21 ft | 4 kts | 159° |
| 2026-05-05 13:17 | 31.15470 | 121.81342 | 22 ft | 74 kts | 163° |
| 2026-05-05 13:17 | 31.14771 | 121.81606 | 21 ft | 134 kts | 162° |
| 2026-05-05 13:18 | 31.13734 | 121.81993 | 130 ft | 171 kts | 164° |
| 2026-05-05 13:18 | 31.12545 | 121.82399 | 577 ft | 183 kts | 164° |
| 2026-05-05 13:18 | 31.11338 | 121.82847 | 1326 ft | 178 kts | 162° |
| 2026-05-05 13:18 | 31.10282 | 121.83392 | 2305 ft | 154 kts | 154° |
| 2026-05-05 13:19 | 31.09391 | 121.84036 | 2892 ft | 155 kts | 149° |
| 2026-05-05 13:19 | 31.08421 | 121.84795 | 3029 ft | 178 kts | 148° |
| 2026-05-05 13:19 | 31.07353 | 121.85656 | 3347 ft | 197 kts | 147° |
| 2026-05-05 13:19 | 31.06157 | 121.86619 | 3554 ft | 221 kts | 146° |
| 2026-05-05 13:20 | 31.04830 | 121.87700 | 3806 ft | 244 kts | 146° |
| 2026-05-05 13:20 | 31.03393 | 121.88882 | 4187 ft | 259 kts | 146° |
| 2026-05-05 13:20 | 31.01906 | 121.90114 | 4801 ft | 266 kts | 145° |
| 2026-05-05 13:20 | 31.00441 | 121.91445 | 4938 ft | 267 kts | 141° |
| 2026-05-05 13:21 | 30.99065 | 121.92856 | 4965 ft | 267 kts | 138° |
| 2026-05-05 13:21 | 30.97702 | 121.94318 | 4968 ft | 267 kts | 137° |
| 2026-05-05 13:21 | 30.96339 | 121.95798 | 4968 ft | 267 kts | 138° |
| 2026-05-05 13:21 | 30.94981 | 121.97265 | 4994 ft | 267 kts | 137° |
| 2026-05-05 13:22 | 30.93878 | 121.98989 | 4995 ft | 268 kts | 114° |
| 2026-05-05 13:22 | 30.93538 | 122.01126 | 5120 ft | 275 kts | 86° |
| 2026-05-05 13:22 | 30.93990 | 122.03287 | 5820 ft | 277 kts | 73° |
| 2026-05-05 13:22 | 30.94586 | 122.05429 | 6531 ft | 279 kts | 72° |
| 2026-05-05 13:23 | 30.95184 | 122.07592 | 7171 ft | 281 kts | 72° |
| 2026-05-05 13:23 | 30.95786 | 122.09777 | 7812 ft | 284 kts | 72° |
| 2026-05-05 13:23 | 30.96393 | 122.11979 | 8450 ft | 287 kts | 72° |
| 2026-05-05 13:23 | 30.97009 | 122.14205 | 9084 ft | 290 kts | 72° |
| 2026-05-05 13:24 | 30.97633 | 122.16458 | 9717 ft | 294 kts | 72° |
| 2026-05-05 13:24 | 30.98263 | 122.18731 | 10287 ft | 299 kts | 72° |
| 2026-05-05 13:24 | 30.98925 | 122.21119 | 10423 ft | 319 kts | 72° |
| 2026-05-05 13:24 | 30.99604 | 122.23665 | 10546 ft | 338 kts | 76° |
| 2026-05-05 13:25 | 30.99985 | 122.26439 | 10674 ft | 356 kts | 86° |
| 2026-05-05 13:25 | 31.00011 | 122.29391 | 10801 ft | 373 kts | 90° |
| 2026-05-05 13:25 | 31.00003 | 122.32478 | 10951 ft | 387 kts | 90° |
| 2026-05-05 13:25 | 30.99997 | 122.35638 | 11353 ft | 392 kts | 90° |
| 2026-05-05 13:26 | 30.99994 | 122.38827 | 11795 ft | 396 kts | 90° |
| 2026-05-05 13:26 | 30.99995 | 122.42060 | 12230 ft | 401 kts | 90° |
| 2026-05-05 13:26 | 30.99998 | 122.45318 | 12736 ft | 403 kts | 90° |
| 2026-05-05 13:26 | 31.00007 | 122.48612 | 13169 ft | 409 kts | 90° |
| 2026-05-05 13:27 | 31.00016 | 122.51939 | 13614 ft | 413 kts | 90° |
| 2026-05-05 13:27 | 31.00024 | 122.55300 | 14093 ft | 415 kts | 90° |
| 2026-05-05 13:27 | 31.00030 | 122.58681 | 14475 ft | 420 kts | 90° |
| 2026-05-05 13:27 | 31.00035 | 122.62097 | 14915 ft | 421 kts | 90° |
| 2026-05-05 13:28 | 31.00038 | 122.65520 | 15332 ft | 424 kts | 90° |
| 2026-05-05 13:28 | 31.00037 | 122.68971 | 15713 ft | 428 kts | 90° |
| 2026-05-05 13:28 | 31.00033 | 122.72446 | 16167 ft | 429 kts | 90° |
| 2026-05-05 13:28 | 31.00031 | 122.75939 | 16550 ft | 433 kts | 90° |
| 2026-05-05 13:29 | 31.00028 | 122.79459 | 16940 ft | 435 kts | 90° |
| 2026-05-05 13:29 | 31.00026 | 122.82992 | 17353 ft | 438 kts | 90° |
| 2026-05-05 13:29 | 31.00023 | 122.86554 | 17721 ft | 441 kts | 90° |
| 2026-05-05 13:29 | 31.00019 | 122.90085 | 18132 ft | 442 kts | 89° |
| 2026-05-05 13:30 | 31.00023 | 122.93680 | 18509 ft | 445 kts | 88° |
| 2026-05-05 13:30 | 31.00364 | 122.97264 | 18832 ft | 446 kts | 77° |
| 2026-05-05 13:30 | 31.01223 | 123.00735 | 19182 ft | 447 kts | 68° |
| 2026-05-05 13:30 | 31.02566 | 123.04005 | 19506 ft | 448 kts | 58° |
| 2026-05-05 13:31 | 31.04319 | 123.07013 | 19845 ft | 449 kts | 52° |
| 2026-05-05 13:31 | 31.06144 | 123.09965 | 20198 ft | 451 kts | 53° |
| 2026-05-05 13:31 | 31.07981 | 123.12951 | 20532 ft | 453 kts | 53° |
| 2026-05-05 13:31 | 31.09818 | 123.15949 | 20854 ft | 456 kts | 53° |
| 2026-05-05 13:32 | 31.11665 | 123.18977 | 21173 ft | 459 kts | 53° |
| 2026-05-05 13:32 | 31.13516 | 123.22016 | 21482 ft | 461 kts | 53° |
| 2026-05-05 13:32 | 31.15384 | 123.25077 | 21807 ft | 463 kts | 53° |
| 2026-05-05 13:32 | 31.17257 | 123.28144 | 22118 ft | 466 kts | 53° |
| 2026-05-05 13:33 | 31.19142 | 123.31230 | 22423 ft | 468 kts | 53° |
| 2026-05-05 13:33 | 31.21038 | 123.34335 | 22734 ft | 470 kts | 53° |
| 2026-05-05 13:33 | 31.22914 | 123.37412 | 23034 ft | 472 kts | 53° |
| 2026-05-05 13:33 | 31.24823 | 123.40547 | 23349 ft | 475 kts | 53° |
| 2026-05-05 13:34 | 31.26740 | 123.43704 | 23652 ft | 477 kts | 53° |
| 2026-05-05 13:34 | 31.28668 | 123.46874 | 23887 ft | 480 kts | 53° |
| 2026-05-05 13:34 | 31.30607 | 123.50060 | 24122 ft | 482 kts | 53° |
| 2026-05-05 13:34 | 31.32555 | 123.53270 | 24349 ft | 485 kts | 53° |
| 2026-05-05 13:35 | 31.34514 | 123.56495 | 24569 ft | 488 kts | 53° |
| 2026-05-05 13:35 | 31.36492 | 123.59731 | 24784 ft | 490 kts | 53° |
| 2026-05-05 13:35 | 31.38480 | 123.62975 | 24990 ft | 492 kts | 53° |
| 2026-05-05 13:35 | 31.40479 | 123.66244 | 25202 ft | 495 kts | 53° |
| 2026-05-05 13:36 | 31.42480 | 123.69522 | 25418 ft | 496 kts | 53° |
| 2026-05-05 13:36 | 31.44497 | 123.72826 | 25572 ft | 499 kts | 53° |
| 2026-05-05 13:36 | 31.46518 | 123.76143 | 25738 ft | 502 kts | 53° |
| 2026-05-05 13:36 | 31.48548 | 123.79481 | 25910 ft | 504 kts | 53° |
| 2026-05-05 13:37 | 31.50581 | 123.82829 | 26079 ft | 506 kts | 53° |
| 2026-05-05 13:37 | 31.52630 | 123.86194 | 26257 ft | 507 kts | 53° |
| 2026-05-05 13:37 | 31.54682 | 123.89559 | 26490 ft | 507 kts | 53° |
| 2026-05-05 13:37 | 31.56726 | 123.92922 | 26722 ft | 507 kts | 53° |
| 2026-05-05 13:38 | 31.58762 | 123.96309 | 26929 ft | 508 kts | 56° |
| 2026-05-05 13:38 | 31.60519 | 123.99924 | 27067 ft | 512 kts | 64° |
| 2026-05-05 13:38 | 31.61822 | 124.03805 | 27247 ft | 513 kts | 73° |
| 2026-05-05 13:38 | 31.62753 | 124.07847 | 27452 ft | 513 kts | 76° |
| 2026-05-05 13:39 | 31.63654 | 124.11900 | 27676 ft | 513 kts | 76° |
| 2026-05-05 13:39 | 31.64561 | 124.15953 | 27899 ft | 514 kts | 76° |
| 2026-05-05 13:39 | 31.65456 | 124.19956 | 28114 ft | 514 kts | 76° |
| 2026-05-05 13:39 | 31.66363 | 124.24023 | 28282 ft | 516 kts | 76° |
| 2026-05-05 13:40 | 31.67274 | 124.28106 | 28463 ft | 518 kts | 76° |
| 2026-05-05 13:40 | 31.68183 | 124.32188 | 28718 ft | 517 kts | 76° |
| 2026-05-05 13:40 | 31.69090 | 124.36277 | 28961 ft | 517 kts | 76° |
| 2026-05-05 13:40 | 31.69993 | 124.40358 | 29187 ft | 517 kts | 77° |
| 2026-05-05 13:41 | 31.70896 | 124.44452 | 29413 ft | 518 kts | 77° |
| 2026-05-05 13:41 | 31.71797 | 124.48551 | 29612 ft | 518 kts | 77° |
| 2026-05-05 13:41 | 31.72700 | 124.52651 | 29765 ft | 521 kts | 77° |
| 2026-05-05 13:41 | 31.73607 | 124.56777 | 29963 ft | 522 kts | 77° |
| 2026-05-05 13:42 | 31.74511 | 124.60903 | 30167 ft | 522 kts | 77° |
| 2026-05-05 13:42 | 31.75416 | 124.65035 | 30357 ft | 523 kts | 77° |
| 2026-05-05 13:42 | 31.76321 | 124.69179 | 30526 ft | 523 kts | 77° |
| 2026-05-05 13:42 | 31.77223 | 124.73317 | 30728 ft | 523 kts | 77° |
| 2026-05-05 13:43 | 31.78126 | 124.77465 | 30864 ft | 525 kts | 77° |
| 2026-05-05 13:43 | 31.79034 | 124.81629 | 31010 ft | 526 kts | 77° |
| 2026-05-05 13:43 | 31.79939 | 124.85787 | 31174 ft | 526 kts | 78° |
| 2026-05-05 13:43 | 31.80841 | 124.89956 | 31345 ft | 527 kts | 78° |
| 2026-05-05 13:44 | 31.81735 | 124.94139 | 31516 ft | 527 kts | 79° |
| 2026-05-05 13:44 | 31.82298 | 124.98378 | 31684 ft | 523 kts | 89° |
| 2026-05-05 13:44 | 31.82343 | 125.02636 | 31800 ft | 519 kts | 98° |
| 2026-05-05 13:44 | 31.81894 | 125.06819 | 31926 ft | 514 kts | 107° |
| 2026-05-05 13:45 | 31.81212 | 125.10956 | 32051 ft | 516 kts | 107° |
| 2026-05-05 13:45 | 31.80534 | 125.15098 | 32204 ft | 517 kts | 107° |
| 2026-05-05 13:45 | 31.79858 | 125.19253 | 32374 ft | 517 kts | 107° |
| 2026-05-05 13:45 | 31.79180 | 125.23397 | 32548 ft | 517 kts | 107° |
| 2026-05-05 13:46 | 31.78498 | 125.27550 | 32684 ft | 518 kts | 108° |
| 2026-05-05 13:46 | 31.77814 | 125.31712 | 32811 ft | 520 kts | 108° |
| 2026-05-05 13:46 | 31.77128 | 125.35886 | 32941 ft | 521 kts | 108° |
| 2026-05-05 13:46 | 31.76437 | 125.40069 | 33092 ft | 521 kts | 108° |
| 2026-05-05 13:47 | 31.75744 | 125.44251 | 33254 ft | 522 kts | 108° |
| 2026-05-05 13:47 | 31.75051 | 125.48429 | 33428 ft | 522 kts | 108° |
| 2026-05-05 13:47 | 31.74353 | 125.52607 | 33626 ft | 521 kts | 108° |
| 2026-05-05 13:47 | 31.73652 | 125.56789 | 33779 ft | 522 kts | 108° |
| 2026-05-05 13:48 | 31.72963 | 125.60975 | 33934 ft | 524 kts | 105° |
| 2026-05-05 13:48 | 31.72648 | 125.65266 | 34090 ft | 532 kts | 95° |
| 2026-05-05 13:48 | 31.72910 | 125.69634 | 34228 ft | 540 kts | 84° |
| 2026-05-05 13:48 | 31.73740 | 125.73948 | 34351 ft | 543 kts | 78° |
| 2026-05-05 13:49 | 31.75804 | 125.82439 | 34566 ft | 547 kts | 70° |
| 2026-05-05 13:49 | 31.77430 | 125.86487 | 34673 ft | 549 kts | 59° |
| 2026-05-05 13:49 | 31.79588 | 125.90180 | 34800 ft | 548 kts | 48° |
| 2026-05-05 13:50 | 31.82224 | 125.93402 | 34910 ft | 545 kts | 37° |
| 2026-05-05 13:50 | 31.91111 | 125.99281 | 35161 ft | 524 kts | 13° |
| 2026-05-05 13:51 | 31.97983 | 126.02177 | 35160 ft | 525 kts | 13° |
| 2026-05-05 13:52 | 32.12001 | 126.08127 | 35162 ft | 522 kts | 13° |
| 2026-05-05 13:52 | 32.18790 | 126.11003 | 35164 ft | 522 kts | 13° |
| 2026-05-05 13:53 | 32.25626 | 126.13902 | 35199 ft | 522 kts | 13° |
| 2026-05-05 13:53 | 32.32449 | 126.16813 | 35192 ft | 521 kts | 13° |
| 2026-05-05 13:54 | 32.39221 | 126.19703 | 35188 ft | 520 kts | 13° |
| 2026-05-05 13:54 | 32.46011 | 126.22594 | 35170 ft | 516 kts | 14° |
| 2026-05-05 13:55 | 32.52765 | 126.25483 | 35148 ft | 516 kts | 13° |
| 2026-05-05 13:55 | 32.59530 | 126.28378 | 35148 ft | 517 kts | 13° |
| 2026-05-05 13:56 | 32.66292 | 126.31277 | 35185 ft | 517 kts | 14° |
| 2026-05-05 13:56 | 32.73063 | 126.34186 | 35187 ft | 517 kts | 14° |
| 2026-05-05 13:57 | 32.79826 | 126.37104 | 35216 ft | 517 kts | 14° |
| 2026-05-05 13:57 | 32.86545 | 126.40016 | 35176 ft | 512 kts | 14° |
| 2026-05-05 13:58 | 32.93250 | 126.42908 | 35177 ft | 512 kts | 14° |
| 2026-05-05 13:58 | 32.99960 | 126.45801 | 35182 ft | 513 kts | 14° |
| 2026-05-05 13:59 | 33.10019 | 126.50135 | 35180 ft | 513 kts | 14° |
| 2026-05-05 14:00 | 33.18973 | 126.53983 | 35187 ft | 514 kts | 14° |
| 2026-05-05 14:00 | 33.26790 | 126.57357 | 35198 ft | 514 kts | 14° |
| 2026-05-05 14:01 | 33.33509 | 126.60265 | 35198 ft | 514 kts | 14° |
| 2026-05-05 14:01 | 33.40226 | 126.63182 | 35207 ft | 513 kts | 14° |
| 2026-05-05 14:02 | 33.46915 | 126.66097 | 35202 ft | 511 kts | 14° |
| 2026-05-05 14:02 | 33.53611 | 126.68967 | 35198 ft | 508 kts | 11° |
| 2026-05-05 14:03 | 33.60458 | 126.70340 | 35206 ft | 495 kts | 358° |
| 2026-05-05 14:03 | 33.67312 | 126.71050 | 35197 ft | 494 kts | 359° |
| 2026-05-05 14:04 | 33.74153 | 126.71776 | 35190 ft | 493 kts | 359° |
| 2026-05-05 14:04 | 33.80983 | 126.72497 | 35200 ft | 492 kts | 359° |
| 2026-05-05 14:05 | 33.87789 | 126.73219 | 35193 ft | 491 kts | 359° |
| 2026-05-05 14:05 | 33.94591 | 126.73936 | 35191 ft | 490 kts | 359° |
| 2026-05-05 14:06 | 34.01375 | 126.74644 | 35199 ft | 489 kts | 359° |
| 2026-05-05 14:06 | 34.08156 | 126.75348 | 35179 ft | 489 kts | 359° |
| 2026-05-05 14:07 | 34.14888 | 126.76047 | 35183 ft | 489 kts | 359° |
| 2026-05-05 14:07 | 34.21658 | 126.76756 | 35201 ft | 488 kts | 359° |
| 2026-05-05 14:08 | 34.28424 | 126.77469 | 35196 ft | 487 kts | 359° |
| 2026-05-05 14:08 | 34.35176 | 126.78188 | 35209 ft | 487 kts | 360° |
| 2026-05-05 14:09 | 34.41921 | 126.78911 | 35200 ft | 486 kts | 0° |
| 2026-05-05 14:09 | 34.48656 | 126.79635 | 35199 ft | 485 kts | 360° |
| 2026-05-05 14:10 | 34.55375 | 126.80354 | 35216 ft | 485 kts | 0° |
| 2026-05-05 14:10 | 34.62089 | 126.81063 | 35200 ft | 484 kts | 0° |
| 2026-05-05 14:11 | 34.68797 | 126.81777 | 35195 ft | 483 kts | 0° |
| 2026-05-05 14:11 | 34.75537 | 126.82505 | 35176 ft | 490 kts | 0° |
| 2026-05-05 14:12 | 34.82367 | 126.83243 | 35167 ft | 495 kts | 0° |
| 2026-05-05 14:12 | 34.89242 | 126.83977 | 35166 ft | 496 kts | 0° |
| 2026-05-05 14:13 | 34.96118 | 126.84716 | 35165 ft | 496 kts | 1° |
| 2026-05-05 14:13 | 35.02995 | 126.85464 | 35168 ft | 496 kts | 0° |
| 2026-05-05 14:14 | 35.09891 | 126.86206 | 35177 ft | 497 kts | 0° |
| 2026-05-05 14:14 | 35.16738 | 126.86952 | 35195 ft | 497 kts | 1° |
| 2026-05-05 14:15 | 35.23624 | 126.87703 | 35196 ft | 497 kts | 1° |
| 2026-05-05 14:15 | 35.30508 | 126.88446 | 35192 ft | 496 kts | 1° |
| 2026-05-05 14:16 | 35.37389 | 126.89194 | 35194 ft | 496 kts | 1° |
| 2026-05-05 14:16 | 35.43140 | 126.89824 | 35188 ft | 495 kts | 1° |
| 2026-05-05 14:17 | 35.51119 | 126.90702 | 35184 ft | 495 kts | 1° |
| 2026-05-05 14:17 | 35.57979 | 126.91447 | 35192 ft | 494 kts | 1° |
| 2026-05-05 14:18 | 35.63661 | 126.92072 | 35179 ft | 493 kts | 1° |
| 2026-05-05 14:18 | 35.70498 | 126.92824 | 35173 ft | 492 kts | 1° |
| 2026-05-05 14:19 | 35.77322 | 126.93560 | 35179 ft | 492 kts | 1° |
| 2026-05-05 14:19 | 35.85099 | 126.94418 | 35175 ft | 491 kts | 1° |
| 2026-05-05 14:20 | 35.91904 | 126.95177 | 35173 ft | 491 kts | 1° |
| 2026-05-05 14:20 | 35.98698 | 126.95925 | 35172 ft | 489 kts | 2° |
| 2026-05-05 14:21 | 36.05474 | 126.96667 | 35172 ft | 488 kts | 2° |
| 2026-05-05 14:22 | 36.18556 | 126.98128 | 34928 ft | 468 kts | 2° |
| 2026-05-05 14:22 | 36.21747 | 126.98496 | 34721 ft | 456 kts | 2° |
| 2026-05-05 14:22 | 36.24864 | 126.98850 | 34587 ft | 444 kts | 2° |
| 2026-05-05 14:23 | 36.27909 | 126.99191 | 34303 ft | 436 kts | 2° |
| 2026-05-05 14:23 | 36.30937 | 126.99517 | 33556 ft | 436 kts | 2° |
| 2026-05-05 14:23 | 36.33942 | 126.99840 | 32409 ft | 432 kts | 2° |
| 2026-05-05 14:23 | 36.36920 | 126.99995 | 31003 ft | 429 kts | 353° |
| 2026-05-05 14:24 | 36.39431 | 126.99397 | 29286 ft | 436 kts | 340° |
| 2026-05-05 14:24 | 36.42329 | 126.98137 | 27197 ft | 445 kts | 340° |
| 2026-05-05 14:24 | 36.45256 | 126.96838 | 25217 ft | 450 kts | 340° |
| 2026-05-05 14:24 | 36.48221 | 126.95523 | 23267 ft | 453 kts | 340° |
| 2026-05-05 14:25 | 36.51197 | 126.94209 | 21210 ft | 453 kts | 340° |
| 2026-05-05 14:25 | 36.54147 | 126.92914 | 19481 ft | 447 kts | 341° |
| 2026-05-05 14:25 | 36.57051 | 126.91643 | 17812 ft | 439 kts | 341° |
| 2026-05-05 14:25 | 36.59906 | 126.90400 | 16064 ft | 430 kts | 341° |
| 2026-05-05 14:26 | 36.62699 | 126.89185 | 14514 ft | 423 kts | 340° |
| 2026-05-05 14:26 | 36.65474 | 126.87979 | 13836 ft | 418 kts | 340° |
| 2026-05-05 14:26 | 36.68193 | 126.86795 | 13215 ft | 409 kts | 340° |
| 2026-05-05 14:26 | 36.70848 | 126.85633 | 12594 ft | 401 kts | 340° |
| 2026-05-05 14:27 | 36.73461 | 126.84483 | 11976 ft | 394 kts | 340° |
| 2026-05-05 14:27 | 36.75984 | 126.83371 | 11427 ft | 386 kts | 339° |
| 2026-05-05 14:27 | 36.78485 | 126.82269 | 11265 ft | 367 kts | 339° |
| 2026-05-05 14:27 | 36.80834 | 126.81235 | 11144 ft | 349 kts | 339° |
| 2026-05-05 14:28 | 36.83039 | 126.80265 | 11017 ft | 333 kts | 339° |
| 2026-05-05 14:28 | 36.85176 | 126.79327 | 10894 ft | 318 kts | 339° |
| 2026-05-05 14:28 | 36.87259 | 126.78410 | 10353 ft | 317 kts | 339° |
| 2026-05-05 14:28 | 36.89269 | 126.77523 | 9960 ft | 298 kts | 338° |
| 2026-05-05 14:29 | 36.91179 | 126.76677 | 9816 ft | 291 kts | 338° |
| 2026-05-05 14:29 | 36.93091 | 126.75830 | 9685 ft | 292 kts | 338° |
| 2026-05-05 14:29 | 36.95004 | 126.74984 | 9550 ft | 291 kts | 338° |
| 2026-05-05 14:29 | 36.96923 | 126.74137 | 9437 ft | 292 kts | 338° |
| 2026-05-05 14:30 | 36.98826 | 126.73294 | 9299 ft | 290 kts | 338° |
| 2026-05-05 14:30 | 37.00725 | 126.72454 | 9170 ft | 289 kts | 338° |
| 2026-05-05 14:30 | 37.02620 | 126.71612 | 8977 ft | 290 kts | 338° |
| 2026-05-05 14:30 | 37.04518 | 126.70769 | 8521 ft | 290 kts | 338° |
| 2026-05-05 14:31 | 37.06411 | 126.69931 | 8155 ft | 287 kts | 338° |
| 2026-05-05 14:31 | 37.08298 | 126.69097 | 7746 ft | 286 kts | 338° |
| 2026-05-05 14:31 | 37.10161 | 126.68275 | 7378 ft | 283 kts | 338° |
| 2026-05-05 14:31 | 37.12013 | 126.67457 | 6992 ft | 281 kts | 338° |
| 2026-05-05 14:32 | 37.13853 | 126.66640 | 6623 ft | 280 kts | 338° |
| 2026-05-05 14:32 | 37.15673 | 126.65828 | 6175 ft | 275 kts | 338° |
| 2026-05-05 14:32 | 37.17466 | 126.65027 | 5399 ft | 273 kts | 338° |
| 2026-05-05 14:32 | 37.19238 | 126.64237 | 4809 ft | 267 kts | 338° |
| 2026-05-05 14:33 | 37.20988 | 126.63459 | 4341 ft | 267 kts | 338° |
| 2026-05-05 14:33 | 37.22698 | 126.62619 | 4031 ft | 255 kts | 330° |
| 2026-05-05 14:33 | 37.24124 | 126.61536 | 4019 ft | 226 kts | 322° |
| 2026-05-05 14:33 | 37.25389 | 126.60409 | 4009 ft | 221 kts | 321° |
| 2026-05-05 14:34 | 37.26640 | 126.59290 | 4010 ft | 220 kts | 321° |
| 2026-05-05 14:34 | 37.27875 | 126.58196 | 3883 ft | 220 kts | 321° |
| 2026-05-05 14:34 | 37.29122 | 126.57093 | 3622 ft | 219 kts | 321° |
| 2026-05-05 14:34 | 37.30364 | 126.55995 | 3351 ft | 218 kts | 321° |
| 2026-05-05 14:35 | 37.31602 | 126.54899 | 3059 ft | 218 kts | 321° |
| 2026-05-05 14:35 | 37.32840 | 126.53803 | 2769 ft | 217 kts | 320° |
| 2026-05-05 14:35 | 37.34070 | 126.52713 | 2478 ft | 217 kts | 320° |
| 2026-05-05 14:35 | 37.35307 | 126.51617 | 2186 ft | 216 kts | 320° |
| 2026-05-05 14:36 | 37.36494 | 126.50569 | 1909 ft | 200 kts | 319° |
| 2026-05-05 14:36 | 37.37589 | 126.49600 | 1662 ft | 183 kts | 319° |
| 2026-05-05 14:36 | 37.38579 | 126.48723 | 1402 ft | 167 kts | 319° |
| 2026-05-05 14:36 | 37.39503 | 126.47901 | 1178 ft | 160 kts | 319° |
| 2026-05-05 14:37 | 37.40397 | 126.47097 | 967 ft | 156 kts | 320° |
| 2026-05-05 14:37 | 37.41270 | 126.46296 | 753 ft | 154 kts | 321° |
| 2026-05-05 14:37 | 37.42122 | 126.45502 | 558 ft | 152 kts | 323° |
| 2026-05-05 14:37 | 37.42999 | 126.44760 | 297 ft | 150 kts | 327° |
| 2026-05-05 14:38 | 37.43870 | 126.44018 | 167 ft | 152 kts | 324° |
| 2026-05-05 14:38 | 37.44714 | 126.43270 | 36 ft | 139 kts | 325° |
| 2026-05-05 14:38 | 37.45386 | 126.42673 | 31 ft | 94 kts | 324° |
| 2026-05-05 14:38 | 37.45778 | 126.42319 | 33 ft | 45 kts | 324° |
| 2026-05-05 14:39 | 37.46004 | 126.42244 | 33 ft | 33 kts | 0° |
| 2026-05-05 14:39 | 37.46090 | 126.42300 | 33 ft | 13 kts | 105° |
| 2026-05-05 14:39 | 37.46024 | 126.42374 | 33 ft | 14 kts | 146° |
| 2026-05-05 14:39 | 37.45942 | 126.42443 | 31 ft | 15 kts | 146° |
| 2026-05-05 14:40 | 37.45845 | 126.42529 | 32 ft | 20 kts | 145° |
| 2026-05-05 14:40 | 37.45726 | 126.42634 | 33 ft | 22 kts | 145° |
| 2026-05-05 14:40 | 37.45613 | 126.42738 | 33 ft | 16 kts | 128° |
| 2026-05-05 14:40 | 37.45654 | 126.42838 | 32 ft | 14 kts | 56° |
| 2026-05-05 14:41 | 37.45713 | 126.42945 | 33 ft | 15 kts | 53° |
| 2026-05-05 14:41 | 37.45780 | 126.43056 | 33 ft | 17 kts | 53° |
| 2026-05-05 14:41 | 37.45777 | 126.43176 | 32 ft | 14 kts | 106° |
| 2026-05-05 14:41 | 37.45813 | 126.43238 | 33 ft | 9 kts | 53° |
| 2026-05-05 14:42 | 37.45748 | 126.43338 | 32 ft | 25 kts | 140° |
| 2026-05-05 14:42 | 37.45636 | 126.43501 | 33 ft | 11 kts | 79° |
| 2026-05-05 14:42 | 37.45695 | 126.43591 | 33 ft | 23 kts | 48° |
| 2026-05-05 14:42 | 37.45845 | 126.43826 | 33 ft | 46 kts | 55° |
| 2026-05-05 14:43 | 37.46051 | 126.44206 | 33 ft | 55 kts | 56° |
| 2026-05-05 14:43 | 37.46158 | 126.44416 | 33 ft | 9 kts | 90° |
| 2026-05-05 14:43 | 37.46129 | 126.44489 | 33 ft | 10 kts | 141° |
| 2026-05-05 14:43 | 37.46084 | 126.44529 | 31 ft | 7 kts | 145° |
| 2026-05-05 14:44 | 37.46048 | 126.44565 | 33 ft | 3 kts | 117° |
| 2026-05-05 14:44 | 37.46058 | 126.44575 | 33 ft | 1 kts | 11° |
| 2026-05-05 14:44 | 37.46066 | 126.44569 | 33 ft | 2 kts | 334° |
| 2026-05-05 14:44 | 37.46117 | 126.44568 | 33 ft | 15 kts | 12° |
| 2026-05-05 14:45 | 37.46222 | 126.44568 | 32 ft | 14 kts | 309° |
| 2026-05-05 14:45 | 37.46279 | 126.44503 | 33 ft | 15 kts | 19° |
| 2026-05-05 14:45 | 37.46326 | 126.44673 | 31 ft | 28 kts | 69° |
| 2026-05-05 14:45 | 37.46411 | 126.44765 | 33 ft | 11 kts | 360° |
| 2026-05-05 14:46 | 37.46504 | 126.44713 | 33 ft | 20 kts | 329° |
| 2026-05-05 14:46 | 37.46645 | 126.44594 | 32 ft | 29 kts | 326° |
| 2026-05-05 14:46 | 37.46834 | 126.44424 | 32 ft | 38 kts | 324° |
| 2026-05-05 14:46 | 37.47060 | 126.44219 | 33 ft | 28 kts | 324° |
| 2026-05-05 14:47 | 37.47175 | 126.44122 | 31 ft | 12 kts | 318° |
| 2026-05-05 14:47 | 37.47258 | 126.44034 | 33 ft | 17 kts | 324° |
| 2026-05-05 14:47 | 37.47299 | 126.43998 | 33 ft | 7 kts | 326° |
| 2026-05-05 14:47 | 37.47367 | 126.43941 | 33 ft | 17 kts | 326° |
| 2026-05-05 14:48 | 37.47461 | 126.43846 | 33 ft | 16 kts | 286° |